Aviation Digital Data Service (ADDS)

Output produced by METARs form (2315 UTC 18 August 2019)
found at http://www.aviationweather.gov/metar/data/
 
Forecast for: VEIM (IMPHAL/TULIHAL , IN)
Text: TAF VEIM 182300Z 1900/1909 00000KT 3000 BR FEW018 SCT100
Forecast period: 0000 to 0400 UTC 19 August 2019
Forecast type: FROM: standard forecast or significant change
Winds: calm
Visibility: 1.86 miles (2.99 km)
Ceiling: at least 12,000 feet AGL
Clouds: few clouds at 1800 feet AGL
scattered clouds at 10000 feet AGL
Weather: BR  (mist)
Text: BECMG 1904/1907 18006KT 5000 BR HZ
Forecast period: 0400 to 0900 UTC 19 August 2019
Forecast type: BECOMING: Conditions expected to become as follows by 0700 UTC 19 August 2019
Winds: from the S (180 degrees) at 7 MPH (6 knots; 3.1 m/s)
Visibility: 3 miles (5 km)
Ceiling: at least 12,000 feet AGL
Clouds: few clouds at 1800 feet AGL
scattered clouds at 10000 feet AGL
Weather: BR HZ  (mist, haze)